Terminal Aerodrome Forecast
Issued by NWS Louisville, KY

Home | Current Version | Previous Version | Text Only | Print | Product List | Glossary On
Versions: 1 2 3 4 5 6 7 8 9 10 11 12 13 14 15 16 17 18 19
760
FTUS43 KLMK 241126
TAFBWG
TAF
KBWG 241126Z 2412/2512 19010KT P6SM FEW180
     FM241600 19015G27KT P6SM SCT040 SCT150
     FM250100 24011G25KT 5SM -SHRA VCTS OVC035CB
     FM250400 28010G20KT P6SM BKN040=

USA.gov is the U.S. government's official web portal to all federal, state and local government web resources and services.